Time;durP1;ratioP1;P1;durP2;ratioP2;P2;SDS_P1;SDS_P2;PMS_P1;PMS_P2;Temp;Humidity;BMP_temperature;BMP_pressure;BME280_temperature;BME280_humidity;BME280_pressure;Samples;Min_cycle;Max_cycle;Signal;HPM_P1;HPM_P2
2022/03/31 00:00:18;;;;;;;27.40;11.65;;;;;;;6.44;70.34;99838.94;5004343;28;20046;-77
2022/03/31 00:02:44;;;;;;;25.85;13.75;;;;;;;6.42;70.11;99840.88;4991480;28;20048;-77
2022/03/31 00:05:10;;;;;;;21.80;12.70;;;;;;;6.46;70.22;99831.06;4993299;28;20022;-76
2022/03/31 00:07:50;;;;;;;29.40;13.52;;;;;;;6.49;70.22;99830.78;4994707;28;20040;-76
2022/03/31 00:10:30;;;;;;;23.50;11.98;;;;;;;6.42;69.29;99833.16;4997140;28;20431;-76
2022/03/31 00:12:57;;;;;;;24.48;12.65;;;;;;;6.42;69.68;99831.41;5003101;28;20033;-76
2022/03/31 00:15:26;;;;;;;23.63;12.30;;;;;;;6.37;69.59;99825.09;4989665;28;20033;-76
2022/03/31 00:17:53;;;;;;;25.02;11.90;;;;;;;6.33;69.68;99824.59;4984715;28;20022;-77
2022/03/31 00:20:18;;;;;;;22.63;11.85;;;;;;;6.35;70.17;99816.72;4988777;28;20040;-76
2022/03/31 00:22:44;;;;;;;25.85;13.98;;;;;;;6.34;70.24;99825.38;4971849;28;20026;-76
2022/03/31 00:25:11;;;;;;;28.98;13.18;;;;;;;6.28;70.16;99815.69;4992101;28;20599;-76
2022/03/31 00:27:38;;;;;;;27.33;12.93;;;;;;;6.33;69.75;99816.03;4988713;28;20505;-76
2022/03/31 00:30:07;;;;;;;29.33;12.57;;;;;;;6.29;69.39;99809.56;4973407;28;20037;-76
2022/03/31 00:32:33;;;;;;;23.67;12.60;;;;;;;6.28;69.89;99815.69;4987809;28;20034;-75
2022/03/31 00:34:58;;;;;;;27.98;12.85;;;;;;;6.20;69.90;99808.72;4969136;28;20073;-75
2022/03/31 00:37:24;;;;;;;23.73;12.65;;;;;;;6.22;70.17;99804.25;5004884;28;20057;-75
2022/03/31 00:39:49;;;;;;;25.50;12.75;;;;;;;6.22;70.57;99810.19;5006484;28;20022;-75
2022/03/31 00:42:16;;;;;;;29.15;12.98;;;;;;;6.26;70.20;99804.75;5003707;28;20034;-75
2022/03/31 00:44:42;;;;;;;23.70;13.05;;;;;;;6.18;70.65;99805.50;4989889;28;20139;-75
2022/03/31 00:47:08;;;;;;;22.48;12.50;;;;;;;6.13;70.63;99803.38;4988120;28;20606;-76
2022/03/31 00:49:34;;;;;;;22.02;12.18;;;;;;;6.12;70.65;99799.19;4991051;28;20029;-76
2022/03/31 00:52:00;;;;;;;24.23;12.32;;;;;;;6.16;70.86;99802.25;5008673;28;20021;-75
2022/03/31 00:54:27;;;;;;;24.88;12.20;;;;;;;6.12;71.15;99794.06;5011542;28;20327;-75
2022/03/31 00:56:53;;;;;;;21.02;11.77;;;;;;;6.18;71.23;99792.63;4981361;28;20048;-75
2022/03/31 00:59:19;;;;;;;24.13;12.57;;;;;;;6.21;70.41;99790.53;4991926;28;20061;-76
2022/03/31 01:01:47;;;;;;;28.73;12.55;;;;;;;6.17;70.59;99786.66;5004801;28;20079;-76
2022/03/31 01:04:13;;;;;;;29.33;12.10;;;;;;;6.23;70.04;99787.81;4988090;28;20041;-75
2022/03/31 01:06:45;;;;;;;25.38;13.23;;;;;;;6.16;70.35;99784.22;5003432;28;20458;-75
2022/03/31 01:09:13;;;;;;;21.15;11.48;;;;;;;6.12;70.04;99788.91;4987657;28;20479;-75
2022/03/31 01:11:39;;;;;;;28.75;13.13;;;;;;;6.05;70.58;99785.31;5003953;28;20021;-76
2022/03/31 01:14:06;;;;;;;19.73;11.40;;;;;;;6.07;70.51;99782.59;4990869;28;20380;-75
2022/03/31 01:16:32;;;;;;;27.67;12.40;;;;;;;5.96;70.86;99776.72;4986813;28;20026;-75
2022/03/31 01:19:03;;;;;;;20.25;11.50;;;;;;;6.01;71.25;99784.00;4986163;28;20025;-75
2022/03/31 01:21:29;;;;;;;21.92;11.75;;;;;;;5.94;71.17;99778.59;4985660;28;20034;-75
2022/03/31 01:23:55;;;;;;;24.45;12.60;;;;;;;6.01;71.02;99776.28;5006071;28;20427;-75
2022/03/31 01:26:21;;;;;;;25.70;11.68;;;;;;;5.96;71.52;99781.06;5004778;28;20172;-75
2022/03/31 01:28:47;;;;;;;23.48;11.45;;;;;;;5.98;71.08;99784.28;4985944;28;20042;-75
2022/03/31 01:31:13;;;;;;;26.10;12.98;;;;;;;5.89;70.98;99773.09;4987867;28;20033;-75
2022/03/31 01:33:40;;;;;;;26.25;11.75;;;;;;;5.95;71.01;99775.13;4988292;28;20085;-75
2022/03/31 01:36:07;;;;;;;27.15;13.27;;;;;;;5.89;72.12;99767.16;5004617;28;20045;-75
2022/03/31 01:38:33;;;;;;;23.77;10.82;;;;;;;5.95;71.84;99771.69;4986527;28;20320;-75
2022/03/31 01:40:59;;;;;;;30.65;12.30;;;;;;;5.96;71.24;99760.47;4988092;28;20030;-75
2022/03/31 01:43:25;;;;;;;25.25;12.70;;;;;;;5.97;71.36;99764.66;4984792;28;20488;-75
2022/03/31 01:45:52;;;;;;;26.35;12.00;;;;;;;5.91;71.69;99766.03;5005766;28;20037;-75
2022/03/31 01:48:19;;;;;;;24.85;12.13;;;;;;;5.88;71.92;99755.22;5005562;28;20037;-75
2022/03/31 01:50:44;;;;;;;29.75;13.55;;;;;;;5.87;72.94;99751.84;5005712;28;20026;-75
2022/03/31 01:53:10;;;;;;;23.95;12.50;;;;;;;5.91;72.75;99739.50;4988987;28;20608;-76
2022/03/31 01:55:36;;;;;;;26.50;12.02;;;;;;;5.86;72.78;99750.25;4985921;28;20033;-75
2022/03/31 01:58:02;;;;;;;20.25;10.93;;;;;;;5.82;73.11;99739.47;4986090;28;20042;-76
2022/03/31 02:00:28;;;;;;;22.58;12.30;;;;;;;5.82;73.42;99741.19;5000449;28;20018;-75
2022/03/31 02:02:54;;;;;;;25.85;11.50;;;;;;;5.80;73.14;99741.38;5003481;28;20394;-75
2022/03/31 02:05:21;;;;;;;22.45;12.18;;;;;;;5.77;73.06;99731.38;5004854;28;20038;-75
2022/03/31 02:07:46;;;;;;;22.55;12.27;;;;;;;5.73;73.32;99721.56;4989243;28;20038;-75
2022/03/31 02:10:13;;;;;;;24.45;11.70;;;;;;;5.76;73.31;99721.22;4986817;28;20045;-75
2022/03/31 02:12:42;;;;;;;24.48;12.43;;;;;;;5.67;74.22;99722.97;5006334;28;20038;-75
2022/03/31 02:15:10;;;;;;;21.92;13.13;;;;;;;5.69;73.44;99720.22;5001865;28;20473;-75
2022/03/31 02:17:35;;;;;;;25.88;12.48;;;;;;;5.77;73.68;99722.88;5001942;28;20396;-75
2022/03/31 02:20:01;;;;;;;24.17;11.82;;;;;;;5.82;73.01;99724.03;5006769;28;20041;-75
2022/03/31 02:22:26;;;;;;;31.60;12.75;;;;;;;5.77;73.15;99707.44;5005274;28;20041;-75
2022/03/31 02:24:52;;;;;;;26.52;12.20;;;;;;;5.74;73.47;99713.66;4966491;28;20041;-75
2022/03/31 02:27:17;;;;;;;23.40;12.68;;;;;;;5.75;74.06;99711.91;5004394;28;21298;-75
2022/03/31 02:29:43;;;;;;;22.33;11.95;;;;;;;5.78;73.91;99714.16;4987151;28;20026;-75
2022/03/31 02:32:09;;;;;;;24.83;12.88;;;;;;;5.80;73.42;99705.34;4988204;28;20026;-75
2022/03/31 02:34:34;;;;;;;22.65;12.38;;;;;;;5.76;73.40;99703.22;5003790;28;20022;-75
2022/03/31 02:37:00;;;;;;;25.02;11.70;;;;;;;5.72;74.08;99707.06;5002280;28;20030;-75
2022/03/31 02:39:28;;;;;;;26.60;11.80;;;;;;;5.74;73.98;99694.84;5003617;28;20574;-75
2022/03/31 02:41:57;;;;;;;26.02;13.48;;;;;;;5.68;74.18;99698.84;5004802;28;20029;-75
2022/03/31 02:44:23;;;;;;;24.45;12.43;;;;;;;5.62;74.27;99702.81;4987829;28;20048;-75
2022/03/31 02:46:48;;;;;;;25.00;12.07;;;;;;;5.66;73.91;99698.19;4987169;28;20022;-75
2022/03/31 02:49:14;;;;;;;25.20;12.23;;;;;;;5.64;74.34;99684.66;5004487;28;20092;-75
2022/03/31 02:51:39;;;;;;;26.92;12.65;;;;;;;5.74;73.39;99684.56;4985590;28;20503;-75
2022/03/31 02:56:49;;;;;;;25.17;12.30;;;;;;;5.65;74.10;99688.84;5003866;28;20034;-75
2022/03/31 02:59:15;;;;;;;25.00;12.10;;;;;;;5.63;74.11;99693.34;5004772;28;20045;-75
2022/03/31 03:01:43;;;;;;;23.88;12.13;;;;;;;5.61;74.30;99688.34;4985589;28;20022;-75
2022/03/31 03:04:09;;;;;;;23.52;11.73;;;;;;;5.61;74.90;99695.25;5004578;28;20074;-76
2022/03/31 03:06:34;;;;;;;23.65;12.35;;;;;;;5.61;74.81;99683.22;5007571;28;20037;-75
2022/03/31 03:09:00;;;;;;;28.95;13.25;;;;;;;5.61;74.54;99682.38;4988690;28;20037;-75
2022/03/31 03:11:25;;;;;;;23.10;13.13;;;;;;;5.63;74.18;99683.03;5003220;28;20048;-75
2022/03/31 03:13:51;;;;;;;26.52;12.13;;;;;;;5.63;74.08;99683.03;5007694;28;20022;-75
2022/03/31 03:16:17;;;;;;;26.52;12.43;;;;;;;5.63;74.26;99681.31;4990756;28;20056;-75
2022/03/31 03:18:42;;;;;;;18.65;11.10;;;;;;;5.65;74.46;99687.09;4988660;28;20042;-75
2022/03/31 03:21:08;;;;;;;24.02;11.85;;;;;;;5.65;74.89;99681.94;4985676;28;20027;-75
2022/03/31 03:23:35;;;;;;;23.58;12.02;;;;;;;5.66;74.50;99673.25;4988750;28;20056;-76
2022/03/31 03:26:02;;;;;;;21.98;12.10;;;;;;;5.70;74.38;99683.25;5004423;28;20041;-74
2022/03/31 03:28:29;;;;;;;25.15;12.60;;;;;;;5.70;74.75;99680.69;5006995;28;20457;-75
2022/03/31 03:30:54;;;;;;;23.90;12.10;;;;;;;5.70;74.79;99678.13;4991659;28;20079;-75
2022/03/31 03:33:20;;;;;;;23.45;11.98;;;;;;;5.73;75.37;99681.19;4989103;28;20667;-75
2022/03/31 03:35:45;;;;;;;32.70;12.82;;;;;;;5.74;75.25;99676.84;4989461;28;20380;-75
2022/03/31 03:38:11;;;;;;;19.45;12.23;;;;;;;5.73;75.40;99677.81;5007837;28;20025;-76
2022/03/31 03:40:37;;;;;;;32.65;14.38;;;;;;;5.73;75.27;99680.41;4972569;28;20856;-75
2022/03/31 03:43:04;;;;;;;22.30;11.98;;;;;;;5.72;75.70;99679.56;5007573;28;20040;-75
2022/03/31 03:45:30;;;;;;;22.40;12.13;;;;;;;5.72;75.90;99679.56;5008133;28;20079;-75
2022/03/31 03:47:55;;;;;;;23.08;12.30;;;;;;;5.69;76.46;99672.16;4988654;28;20037;-75
2022/03/31 03:50:21;;;;;;;23.85;13.07;;;;;;;5.69;76.97;99676.50;4989425;28;20038;-75
2022/03/31 03:52:47;;;;;;;32.00;14.18;;;;;;;5.72;77.08;99673.63;4988064;28;20026;-75
2022/03/31 03:55:12;;;;;;;27.13;13.10;;;;;;;5.65;77.67;99681.94;5007125;28;20072;-75
2022/03/31 03:57:38;;;;;;;29.45;13.70;;;;;;;5.63;77.62;99677.91;4970110;28;20435;-75
2022/03/31 04:00:05;;;;;;;27.98;12.52;;;;;;;5.62;78.19;99676.31;4989866;28;20033;-75
2022/03/31 04:02:31;;;;;;;27.55;13.43;;;;;;;5.60;78.79;99676.44;5007589;28;20550;-75
2022/03/31 04:04:56;;;;;;;27.42;14.02;;;;;;;5.59;79.04;99672.25;5006141;28;20042;-75
2022/03/31 04:07:22;;;;;;;28.88;14.68;;;;;;;5.57;79.67;99670.78;4990265;28;20046;-76
2022/03/31 04:09:47;;;;;;;25.95;13.55;;;;;;;5.57;80.20;99670.78;5006850;28;20034;-74
2022/03/31 04:12:13;;;;;;;30.75;15.45;;;;;;;5.57;80.43;99673.38;4988886;28;20108;-75
2022/03/31 04:14:39;;;;;;;24.55;13.77;;;;;;;5.56;80.97;99670.00;4988864;28;20038;-75
2022/03/31 04:17:05;;;;;;;29.20;14.95;;;;;;;5.55;80.60;99665.78;5007780;28;20038;-75
2022/03/31 04:19:30;;;;;;;30.83;15.00;;;;;;;5.55;80.97;99663.22;5004947;28;20131;-75
2022/03/31 04:21:56;;;;;;;27.70;14.75;;;;;;;5.55;81.27;99657.28;4971902;28;20592;-76
2022/03/31 04:24:21;;;;;;;27.77;14.48;;;;;;;5.57;81.86;99660.50;4988852;28;20129;-75
2022/03/31 04:26:47;;;;;;;26.92;14.27;;;;;;;5.59;82.31;99656.00;4988880;28;20049;-75
2022/03/31 04:29:12;;;;;;;31.75;14.55;;;;;;;5.59;82.12;99649.09;4988398;28;20034;-75
2022/03/31 04:31:43;;;;;;;27.95;15.75;;;;;;;5.62;82.68;99653.16;4990766;28;20031;-75
2022/03/31 04:34:15;;;;;;;30.48;14.95;;;;;;;5.62;82.61;99653.94;4987956;28;20542;-76
2022/03/31 04:36:42;;;;;;;27.10;14.50;;;;;;;5.61;82.49;99661.81;4987938;28;20033;-75
2022/03/31 04:39:08;;;;;;;27.33;14.43;;;;;;;5.58;82.93;99659.56;5006254;28;20599;-74
2022/03/31 04:41:34;;;;;;;30.42;15.20;;;;;;;5.59;83.39;99656.00;5004898;28;20034;-75
2022/03/31 04:43:59;;;;;;;28.05;14.82;;;;;;;5.58;83.67;99657.78;5010729;22;20037;-71
2022/03/31 04:46:25;;;;;;;29.02;15.75;;;;;;;5.58;83.59;99657.00;4977862;28;21065;-69
2022/03/31 04:48:51;;;;;;;27.17;15.98;;;;;;;5.60;83.89;99667.94;4977045;28;20030;-70
2022/03/31 04:51:16;;;;;;;28.35;15.55;;;;;;;5.56;84.27;99654.56;4976083;28;20461;-69
2022/03/31 04:53:44;;;;;;;31.05;15.73;;;;;;;5.56;84.51;99659.72;4978358;28;20461;-69
2022/03/31 04:56:10;;;;;;;32.03;16.30;;;;;;;5.55;84.68;99663.22;4975118;28;20153;-69
2022/03/31 04:58:37;;;;;;;28.10;16.60;;;;;;;5.51;84.65;99659.34;4982851;23;20050;-70
2022/03/31 05:01:04;;;;;;;29.75;17.08;;;;;;;5.54;84.74;99666.78;4966904;28;20038;-71
2022/03/31 05:03:29;;;;;;;33.00;16.17;;;;;;;5.53;84.85;99657.44;4983018;28;20030;-70
2022/03/31 05:05:55;;;;;;;31.42;15.88;;;;;;;5.52;85.31;99665.28;4993156;28;20037;-70
2022/03/31 05:08:20;;;;;;;33.60;18.08;;;;;;;5.51;85.48;99656.78;4978121;28;20172;-71
2022/03/31 05:10:46;;;;;;;28.63;16.83;;;;;;;5.48;85.60;99662.22;4982346;28;20053;-71
2022/03/31 05:13:12;;;;;;;35.63;18.33;;;;;;;5.51;85.79;99661.91;4978240;28;20428;-70
2022/03/31 05:15:40;;;;;;;31.73;17.73;;;;;;;5.50;86.19;99665.47;4981791;28;20436;-70
2022/03/31 05:18:06;;;;;;;36.10;17.65;;;;;;;5.43;86.70;99659.31;4982880;28;20038;-70
2022/03/31 05:20:32;;;;;;;33.72;16.48;;;;;;;5.41;86.74;99659.44;4995187;28;20050;-70
2022/03/31 05:22:57;;;;;;;33.95;17.58;;;;;;;5.40;86.73;99667.31;4984383;28;20034;-70
2022/03/31 05:25:23;;;;;;;40.58;18.02;;;;;;;5.39;86.81;99668.28;4984928;28;20050;-70
2022/03/31 05:27:49;;;;;;;33.35;17.60;;;;;;;5.37;87.15;99659.88;4966436;28;20121;-71
2022/03/31 05:30:19;;;;;;;34.15;17.55;;;;;;;5.37;87.46;99665.84;4981803;28;20032;-70
2022/03/31 05:32:45;;;;;;;38.58;17.85;;;;;;;5.39;87.53;99658.00;4984361;28;20034;-70
2022/03/31 05:35:11;;;;;;;38.78;19.48;;;;;;;5.39;88.46;99668.28;4982474;28;20405;-71
2022/03/31 05:37:37;;;;;;;35.42;18.98;;;;;;;5.32;89.00;99670.63;4978243;28;20353;-71
2022/03/31 05:40:04;;;;;;;36.35;18.73;;;;;;;5.31;88.96;99666.44;4982666;28;20061;-70
2022/03/31 05:42:32;;;;;;;44.80;18.85;;;;;;;5.33;88.76;99667.09;4979293;28;20072;-70
2022/03/31 05:45:01;;;;;;;39.67;18.15;;;;;;;5.38;89.51;99664.06;4981594;28;20129;-70
2022/03/31 05:47:26;;;;;;;44.10;19.02;;;;;;;5.37;89.91;99662.44;4996024;28;20389;-70
2022/03/31 05:49:52;;;;;;;42.17;19.83;;;;;;;5.37;89.97;99670.16;4979653;28;20037;-70
2022/03/31 05:52:22;;;;;;;41.22;20.38;;;;;;;5.34;89.98;99661.00;4969103;28;20030;-71
2022/03/31 05:54:48;;;;;;;45.72;21.10;;;;;;;5.34;90.12;99663.56;4982316;28;20034;-70
2022/03/31 05:57:15;;;;;;;40.65;20.38;;;;;;;5.30;90.40;99661.47;4979534;28;20037;-70
2022/03/31 05:59:40;;;;;;;45.60;21.83;;;;;;;5.32;91.06;99655.19;4980892;28;20053;-70
2022/03/31 06:02:07;;;;;;;39.83;20.60;;;;;;;5.32;90.55;99667.25;4976598;28;20104;-70
2022/03/31 06:04:33;;;;;;;42.72;21.50;;;;;;;5.36;90.56;99656.50;4979578;28;20044;-70
2022/03/31 06:06:58;;;;;;;46.10;22.20;;;;;;;5.39;91.12;99670.84;4982033;28;20034;-70
2022/03/31 06:09:27;;;;;;;47.38;22.98;;;;;;;5.33;90.96;99679.97;4962488;28;20034;-71
2022/03/31 06:11:52;;;;;;;52.05;23.85;;;;;;;5.30;91.60;99677.69;4980379;28;20033;-71
2022/03/31 06:14:18;;;;;;;52.63;25.17;;;;;;;5.34;91.54;99681.56;4980581;28;20484;-70
2022/03/31 06:16:43;;;;;;;58.25;24.58;;;;;;;5.20;91.54;99671.84;4974918;28;20081;-71
2022/03/31 06:19:09;;;;;;;52.13;25.40;;;;;;;5.26;91.75;99684.06;4979073;28;20041;-70
2022/03/31 06:21:36;;;;;;;47.35;22.92;;;;;;;5.20;91.77;99679.53;4979168;28;20026;-71
2022/03/31 06:24:02;;;;;;;55.42;25.70;;;;;;;5.15;91.40;99674.81;4980327;28;20649;-71
2022/03/31 06:26:28;;;;;;;49.58;25.42;;;;;;;5.16;91.30;99683.34;4976792;28;20097;-71
2022/03/31 06:28:53;;;;;;;54.67;26.30;;;;;;;5.11;91.73;99685.56;4982634;28;20329;-70
2022/03/31 06:31:23;;;;;;;54.35;25.15;;;;;;;5.02;91.53;99680.34;4980893;28;20109;-70
2022/03/31 06:33:49;;;;;;;60.97;26.45;;;;;;;4.94;91.67;99675.13;4977510;28;20575;-71
2022/03/31 06:36:15;;;;;;;54.90;26.40;;;;;;;4.90;92.38;99681.53;4978348;28;20035;-70
2022/03/31 06:38:40;;;;;;;60.10;27.05;;;;;;;4.93;92.26;99683.78;4980515;28;20455;-71
2022/03/31 06:41:14;;;;;;;57.00;26.42;;;;;;;4.80;93.10;99684.16;4982219;28;20071;-71
2022/03/31 06:43:43;;;;;;;58.95;25.25;;;;;;;4.90;92.99;99686.66;4984150;28;20030;-71
2022/03/31 06:46:10;;;;;;;57.97;25.70;;;;;;;4.92;92.97;99682.19;4985676;28;20040;-71
2022/03/31 06:48:37;;;;;;;55.55;26.20;;;;;;;4.91;92.89;99679.75;4997190;28;20117;-71
2022/03/31 06:51:04;;;;;;;59.13;26.27;;;;;;;4.89;93.32;99682.47;4982684;28;20027;-70
2022/03/31 06:53:29;;;;;;;57.85;25.83;;;;;;;4.85;93.27;99674.25;4997861;28;20034;-70
2022/03/31 06:55:55;;;;;;;58.08;26.23;;;;;;;4.80;93.26;99671.31;4985770;28;20407;-70
2022/03/31 06:58:29;;;;;;;57.85;28.25;;;;;;;4.86;93.43;99678.44;4983810;28;20046;-70
2022/03/31 07:00:56;;;;;;;50.88;25.38;;;;;;;4.90;93.09;99670.41;4986202;28;20041;-70
2022/03/31 07:03:22;;;;;;;52.45;25.17;;;;;;;4.94;92.68;99664.84;4985418;28;20040;-70
2022/03/31 07:05:48;;;;;;;56.10;26.27;;;;;;;4.87;92.85;99663.81;4987316;28;20040;-71
2022/03/31 07:08:14;;;;;;;59.85;27.60;;;;;;;4.87;93.57;99668.97;4981171;28;20046;-70
2022/03/31 07:10:39;;;;;;;53.03;26.02;;;;;;;4.91;94.38;99665.13;4987003;28;20409;-71
2022/03/31 07:13:05;;;;;;;54.05;25.85;;;;;;;4.91;94.40;99660.00;4980503;28;20053;-71
2022/03/31 07:15:31;;;;;;;56.08;26.30;;;;;;;4.93;94.10;99659.84;4997257;28;20071;-70
2022/03/31 07:17:57;;;;;;;58.60;25.75;;;;;;;5.00;94.16;99655.75;4983727;28;20026;-70
2022/03/31 07:20:24;;;;;;;55.35;26.05;;;;;;;5.04;93.96;99665.56;4981706;28;20117;-70
2022/03/31 07:22:50;;;;;;;54.25;26.63;;;;;;;5.09;94.39;99665.16;4980608;28;21573;-70
2022/03/31 07:25:17;;;;;;;61.50;28.05;;;;;;;5.17;94.68;99669.53;4982058;28;20026;-70
2022/03/31 07:27:44;;;;;;;59.97;28.38;;;;;;;5.24;94.86;99666.22;4981499;28;20041;-70
2022/03/31 07:30:12;;;;;;;58.95;26.73;;;;;;;5.35;95.26;99672.06;4984523;28;20034;-70
2022/03/31 07:32:52;;;;;;;51.35;26.83;;;;;;;5.49;95.02;99674.13;4981229;28;20030;-71
2022/03/31 07:35:18;;;;;;;59.33;28.27;;;;;;;5.55;95.19;99673.50;4982180;28;20042;-70
2022/03/31 07:37:44;;;;;;;62.33;27.98;;;;;;;5.55;94.60;99670.94;4965266;28;20504;-70
2022/03/31 07:40:10;;;;;;;52.00;27.17;;;;;;;5.59;94.82;99671.44;4982961;28;20040;-70
2022/03/31 07:42:36;;;;;;;55.45;28.17;;;;;;;5.65;95.00;99670.84;4983322;28;20041;-70
2022/03/31 07:45:02;;;;;;;60.92;28.98;;;;;;;5.70;94.97;99672.97;4980323;28;20034;-70
2022/03/31 07:47:27;;;;;;;57.40;27.27;;;;;;;5.77;94.64;99672.22;4980474;28;20141;-70
2022/03/31 07:49:56;;;;;;;58.47;27.60;;;;;;;5.87;94.87;99674.66;4982272;28;20531;-70
2022/03/31 07:52:22;;;;;;;59.75;28.02;;;;;;;5.92;93.94;99669.88;4982882;28;20052;-70
2022/03/31 07:54:50;;;;;;;60.70;27.90;;;;;;;6.03;93.92;99664.50;4981716;28;20693;-71
2022/03/31 07:57:16;;;;;;;58.83;27.02;;;;;;;5.84;93.09;99669.84;4981185;28;21196;-70
2022/03/31 07:59:42;;;;;;;63.45;29.40;;;;;;;5.63;93.45;99665.88;4977705;28;20038;-71
2022/03/31 08:02:08;;;;;;;67.10;29.45;;;;;;;5.69;93.65;99667.03;4982709;28;20034;-70
2022/03/31 08:04:34;;;;;;;62.30;30.50;;;;;;;5.52;93.47;99666.13;4984185;28;20039;-70
2022/03/31 08:06:59;;;;;;;67.65;30.88;;;;;;;5.43;93.83;99664.44;4984404;28;20035;-70
2022/03/31 08:09:25;;;;;;;67.50;30.95;;;;;;;5.51;93.83;99671.41;4978296;28;20041;-70
2022/03/31 08:11:52;;;;;;;66.18;32.22;;;;;;;5.51;94.15;99664.50;4981844;28;20036;-71
2022/03/31 08:14:19;;;;;;;67.50;32.45;;;;;;;5.60;93.65;99668.72;4998131;28;20038;-71
2022/03/31 08:16:50;;;;;;;77.13;34.42;;;;;;;5.46;93.42;99670.09;4982723;28;20038;-70
2022/03/31 08:19:17;;;;;;;70.47;33.65;;;;;;;5.41;93.31;99668.94;4982694;28;20489;-70
2022/03/31 08:21:44;;;;;;;69.65;32.72;;;;;;;5.36;93.63;99663.44;4983487;28;20080;-70
2022/03/31 08:24:11;;;;;;;69.85;32.90;;;;;;;5.49;94.24;99674.13;4998422;28;20406;-70
2022/03/31 08:26:37;;;;;;;79.20;34.28;;;;;;;5.68;93.63;99673.13;4978129;28;20634;-71
2022/03/31 08:29:04;;;;;;;87.90;34.90;;;;;;;5.63;93.59;99665.88;4981621;28;20097;-70
2022/03/31 08:31:30;;;;;;;70.05;31.67;;;;;;;5.57;93.58;99666.44;4980965;28;20038;-70
2022/03/31 08:33:56;;;;;;;67.55;32.05;;;;;;;5.63;94.23;99663.28;4984434;28;20057;-70
2022/03/31 08:36:22;;;;;;;71.88;34.13;;;;;;;5.68;92.82;99669.75;4979910;28;20492;-70
2022/03/31 08:38:47;;;;;;;75.18;34.10;;;;;;;5.68;93.15;99664.59;4983910;28;20328;-71
2022/03/31 08:41:13;;;;;;;75.63;35.03;;;;;;;5.84;92.79;99662.13;4998558;28;20045;-71
2022/03/31 08:43:42;;;;;;;75.25;34.58;;;;;;;5.88;92.75;99663.44;4980117;28;20037;-70
2022/03/31 08:46:09;;;;;;;91.47;37.53;;;;;;;5.80;93.05;99665.94;4982335;28;20038;-70
2022/03/31 08:48:39;;;;;;;77.43;37.40;;;;;;;5.84;93.52;99672.41;4982053;28;20085;-70
2022/03/31 08:51:05;;;;;;;74.55;35.85;;;;;;;5.69;92.08;99668.78;4981243;28;20129;-70
2022/03/31 08:53:34;;;;;;;74.70;35.83;;;;;;;5.75;91.59;99665.63;4980377;28;20499;-70
2022/03/31 08:55:59;;;;;;;82.90;38.28;;;;;;;5.77;92.49;99661.91;4966254;28;20396;-70
2022/03/31 08:58:28;;;;;;;84.82;37.33;;;;;;;5.81;92.86;99670.94;4977315;28;20038;-70
2022/03/31 09:00:54;;;;;;;86.45;38.42;;;;;;;5.65;93.09;99674.25;4982713;28;20026;-70
2022/03/31 09:03:19;;;;;;;81.78;38.13;;;;;;;5.68;92.64;99667.97;4980774;28;20461;-70
2022/03/31 09:05:51;;;;;;;77.43;37.55;;;;;;;5.65;93.11;99669.09;4979657;28;20038;-70
2022/03/31 09:08:17;;;;;;;83.25;37.75;;;;;;;5.74;92.24;99675.06;4981958;28;20034;-70
2022/03/31 09:10:45;;;;;;;86.72;39.17;;;;;;;5.74;92.88;99677.66;4998400;28;20096;-70
2022/03/31 09:13:35;;;;;;;84.00;39.88;;;;;;;5.72;93.23;99681.34;4983515;28;20593;-70
2022/03/31 09:16:06;;;;;;;88.03;40.40;;;;;;;5.88;92.90;99675.47;4981148;28;20512;-71
2022/03/31 09:18:36;;;;;;;87.55;39.63;;;;;;;5.77;92.43;99679.94;4989530;28;20082;-70
2022/03/31 09:21:08;;;;;;;84.15;39.13;;;;;;;5.77;92.07;99679.94;4981698;28;20034;-70
2022/03/31 09:23:43;;;;;;;94.72;39.13;;;;;;;5.82;91.83;99682.84;4980447;28;20035;-70
2022/03/31 09:26:12;;;;;;;90.03;39.17;;;;;;;5.93;92.31;99684.34;4979465;28;20109;-69
2022/03/31 09:28:46;;;;;;;85.10;40.95;;;;;;;5.91;90.65;99686.25;4983041;28;20301;-70
2022/03/31 09:31:13;;;;;;;92.38;41.72;;;;;;;5.69;90.88;99679.06;4981274;28;20042;-70
2022/03/31 09:33:49;;;;;;;90.50;41.33;;;;;;;5.75;91.44;99683.63;4978417;28;20628;-70
2022/03/31 09:36:17;;;;;;;98.93;40.67;;;;;;;5.65;92.06;99684.53;4977787;28;20026;-70
2022/03/31 09:39:00;;;;;;;97.53;43.50;;;;;;;5.61;92.10;99683.22;4978413;28;20388;-70
2022/03/31 09:41:34;;;;;;;96.40;42.15;;;;;;;5.61;92.05;99682.38;4981958;28;20057;-70
2022/03/31 09:44:03;;;;;;;97.00;41.78;;;;;;;5.60;92.96;99679.03;4977836;28;20475;-70
2022/03/31 09:46:35;;;;;;;96.25;41.72;;;;;;;5.64;92.31;99680.31;4960527;28;20472;-70
2022/03/31 09:49:15;;;;;;;94.70;39.92;;;;;;;5.77;91.91;99679.94;4991555;28;20049;-70
2022/03/31 09:51:43;;;;;;;108.55;50.05;;;;;;;5.69;92.15;99668.78;4978736;28;20022;-70
2022/03/31 09:54:08;;;;;;;98.72;42.35;;;;;;;5.77;92.59;99679.13;4981319;28;20038;-70
2022/03/31 09:56:35;;;;;;;105.82;44.05;;;;;;;5.73;91.95;99677.81;4978016;28;20046;-70
2022/03/31 09:59:03;;;;;;;108.00;44.92;;;;;;;5.61;93.30;99682.38;4978386;28;20034;-70
2022/03/31 10:01:29;;;;;;;98.47;43.10;;;;;;;5.62;94.01;99684.03;4978866;28;20039;-70
2022/03/31 10:03:56;;;;;;;102.57;45.30;;;;;;;5.79;93.57;99683.16;4979735;28;20477;-70
2022/03/31 10:06:25;;;;;;;109.50;45.38;;;;;;;5.92;92.51;99677.59;4978285;28;20043;-70
2022/03/31 10:08:56;;;;;;;100.47;44.80;;;;;;;5.77;92.16;99682.50;4979538;28;20337;-70
2022/03/31 10:11:23;;;;;;;99.35;44.75;;;;;;;5.79;91.76;99688.28;4977248;28;20034;-70
2022/03/31 10:13:52;;;;;;;108.45;46.50;;;;;;;5.74;93.04;99682.00;4995329;28;20065;-70
2022/03/31 10:16:24;;;;;;;99.53;44.40;;;;;;;5.93;93.38;99679.19;4980998;28;20345;-70
2022/03/31 10:18:49;;;;;;;97.40;41.95;;;;;;;5.77;92.68;99689.41;4978744;28;20074;-70
2022/03/31 10:21:29;;;;;;;95.45;42.85;;;;;;;5.66;93.38;99682.75;4978131;28;20030;-70
2022/03/31 10:26:40;;;;;;;92.25;38.80;;;;;;;5.79;92.98;99684.94;4978271;28;20081;-70
2022/03/31 10:29:14;;;;;;;86.03;39.75;;;;;;;5.81;92.79;99688.16;4976377;28;20041;-70
2022/03/31 10:31:44;;;;;;;87.68;37.78;;;;;;;5.70;93.06;99675.53;4964425;28;20022;-71
2022/03/31 10:34:12;;;;;;;91.00;37.95;;;;;;;5.66;92.22;99682.75;4979062;28;20029;-71
2022/03/31 10:36:43;;;;;;;81.70;35.58;;;;;;;5.73;91.98;99682.97;4994777;28;20041;-71
2022/03/31 10:39:35;;;;;;;75.05;33.53;;;;;;;5.63;92.06;99681.31;4977588;28;20041;-70
2022/03/31 10:42:02;;;;;;;80.78;35.65;;;;;;;5.85;92.92;99677.38;4973519;28;20046;-70
2022/03/31 10:44:28;;;;;;;76.68;32.80;;;;;;;5.85;92.46;99677.38;4979459;28;20439;-71
2022/03/31 10:47:06;;;;;;;73.90;32.15;;;;;;;5.80;92.82;99678.81;4980732;28;20312;-71
2022/03/31 10:49:32;;;;;;;64.10;30.88;;;;;;;5.63;92.52;99676.16;4976419;28;20093;-71
2022/03/31 10:51:59;;;;;;;58.97;27.83;;;;;;;5.54;92.58;99677.06;4978778;28;20041;-71
2022/03/31 10:54:30;;;;;;;53.22;27.02;;;;;;;5.33;92.39;99676.56;4976667;28;20084;-71
2022/03/31 10:57:05;;;;;;;49.80;25.25;;;;;;;5.44;92.56;99676.31;4979760;28;20763;-71
2022/03/31 10:59:32;;;;;;;46.10;23.95;;;;;;;5.40;92.52;99680.97;4991791;28;20041;-71
2022/03/31 11:02:06;;;;;;;45.35;23.80;;;;;;;5.20;92.52;99682.91;4977841;28;20145;-70
2022/03/31 11:04:51;;;;;;;47.55;21.85;;;;;;;5.16;93.45;99675.63;4982334;28;20034;-71
2022/03/31 11:07:20;;;;;;;47.65;23.55;;;;;;;5.10;93.24;99674.47;4978374;28;20076;-70
2022/03/31 11:09:46;;;;;;;41.83;22.75;;;;;;;4.94;93.85;99675.13;4978993;28;20535;-71
2022/03/31 11:12:28;;;;;;;55.65;24.48;;;;;;;5.01;94.17;99683.03;4979807;28;20030;-70
2022/03/31 11:15:03;;;;;;;41.88;23.13;;;;;;;5.17;94.44;99672.91;4992618;28;20118;-70
2022/03/31 11:17:30;;;;;;;47.25;22.80;;;;;;;5.00;93.73;99671.16;4981650;28;20480;-70
2022/03/31 11:19:57;;;;;;;45.08;23.02;;;;;;;5.04;94.15;99672.47;4980951;28;20130;-70
2022/03/31 11:22:26;;;;;;;40.03;22.05;;;;;;;5.01;93.86;99680.47;4976147;28;20046;-70
2022/03/31 11:24:51;;;;;;;41.65;20.83;;;;;;;4.80;93.45;99673.06;4979559;28;20157;-70
2022/03/31 11:27:39;;;;;;;40.65;20.90;;;;;;;4.75;93.76;99675.28;4982258;28;20054;-71
2022/03/31 11:30:12;;;;;;;43.97;20.65;;;;;;;4.82;93.94;99674.53;4979219;28;20038;-70